Terminal Aerodrome Forecast
Issued by NWS

Home | Current Version | Previous Version | Text Only | Print | Product List | Glossary On
Versions: 1 2 3 4 5 6 7 8 9 10 11 12 13
000
FTUS42 KMLB 231452 AAA
TAFTIX
TAF AMD
KTIX 231452Z 2315/2412 05007KT P6SM BKN013
     FM231700 09009KT P6SM VCSH SCT035 SCT250
      TEMPO 2317/2319 3SM SHRA BKN025
     FM240000 12006KT P6SM FEW030 SCT120 BKN250
     FM240600 15003KT P6SM SCT020 BKN250=

USA.gov is the U.S. government's official web portal to all federal, state and local government web resources and services.